Galway Airport

EICM · Connaught, 爱尔兰

罗盘
风向 的 风向 150° Galway Airport 8/26
风: 10 kt, 3 beaufort

3 kt

10 kt
改变
0 1.000 2.000 3.000 4.000 5.000
BKN 2.600 ft
METAR EINN 291200Z 15010KT 9999 BKN026 09/04 Q1018 NOSIG

METAR Galway Airport - EICM/GWY

Galway Airport是,爱尔兰中的中型机场。 该机场有一条跑道: 8/26. 该领域的国际民航组织标志是EICM 它的国际航空运输协会代码是GWY.

这份报告是针对2022年11月29日 12:00, 当地时间在香農機場进行的。

机场观察

风向为150°,速度为10 kt。

可见度为10 km 或者更多。

有碎云在2.600 ft的高度。 破损或更高的上限为2.600 ft。

温度为9 °C,阵风为5 °C。 露点为4 °C,相对湿度为71%。 海平面上的气压为1018 hPa (QNH)。

白天

今天,太阳从08:24升起,在16:23降落。 这适用于Galway Airport,世界夏令时可能有所不同。 当地时间与世界标准时间之间的时差为+0 小时。 当前,没有夏令时有效。

公司介绍

我们没有关于这个机场的公司信息。

体会

到Vliegles.nl去找飞行课程,跳伞和其他飞行体验。 浏览页面,了解Galway Airport附近所有可用的活动。 你也可以使用搜索功能来寻找你所在地附近的特定飞行课程、跳伞或其他飞行体验。

跑道

Id 标题 侧风 逆风 侧风 %
8/26 075°-255° 10 kt 3 kt 97 %

逆风成分最大的方向会被突出显示,并用于横风计算。 这并不一定意味着这个方向在使用。

乌云

2.600 ft BKN 碎云

温度 & 天气

温度 9 °C
露点 4 °C
相对湿度 71%
风寒 5 °C
Kp-index 2 (0-9)

白天

日出
08:21
中午
12:23
日落
16:26 (4:05)

小工具

你想在你的网站上有一个关于Galway Airport的当前航空天气(METAR)的小部件吗?

显示HTML代码

我们和第三方通过cookies跟踪您在我们网站上的互联网行为。如果你继续,我们认为你同意我们的饼干政策